createdAt,value
2023-04-15T00:02:28.181Z,82.49
2023-04-15T00:05:33.736Z,82.38
2023-04-15T00:08:48.368Z,82.75
2023-04-15T00:11:53.988Z,82.98
2023-04-15T00:15:06.785Z,83.71
2023-04-15T00:18:12.828Z,83.64
2023-04-15T00:21:17.515Z,83.83
2023-04-15T00:24:21.317Z,84.59
2023-04-15T00:27:25.388Z,84.89
2023-04-15T00:30:30.321Z,84.94
2023-04-15T00:33:34.800Z,85.28
2023-04-15T00:36:45.430Z,85.34
2023-04-15T00:39:51.222Z,85.65
2023-04-15T00:43:05.508Z,85.17
2023-04-15T00:46:13.707Z,85.09
2023-04-15T00:49:25.417Z,84.95
2023-04-15T00:52:28.849Z,85.20
2023-04-15T00:55:34.451Z,84.57
2023-04-15T00:58:46.100Z,84.66
2023-04-15T01:01:51.482Z,84.45
2023-04-15T01:05:02.290Z,84.81
2023-04-15T01:11:24.466Z,85.13
2023-04-15T01:14:28.249Z,85.35
2023-04-15T01:17:32.242Z,85.40
2023-04-15T01:20:38.715Z,85.59
2023-04-15T01:23:54.378Z,85.76
2023-04-15T01:26:59.868Z,85.82
2023-04-15T01:30:05.376Z,85.83
2023-04-15T01:33:08.586Z,85.40
2023-04-15T01:36:12.254Z,85.73
2023-04-15T01:39:17.897Z,85.52
2023-04-15T01:42:22.857Z,85.28
2023-04-15T01:45:24.850Z,85.35
2023-04-15T01:48:30.876Z,85.42
2023-04-15T01:51:33.180Z,85.20
2023-04-15T01:54:35.753Z,85.20
2023-04-15T01:57:49.277Z,85.66
2023-04-15T02:01:01.471Z,85.50
2023-04-15T02:04:15.028Z,85.81
2023-04-15T02:07:20.298Z,85.79
2023-04-15T02:10:24.745Z,85.75
2023-04-15T02:13:35.472Z,85.36
2023-04-15T02:16:41.359Z,85.32
2023-04-15T02:19:47.363Z,85.43
2023-04-15T02:22:53.100Z,85.14
2023-04-15T02:25:58.444Z,85.35
2023-04-15T02:29:03.121Z,85.33
2023-04-15T02:32:08.033Z,85.64
2023-04-15T02:35:19.876Z,85.79
2023-04-15T02:38:24.359Z,85.82
2023-04-15T02:41:29.225Z,85.82
2023-04-15T02:44:43.501Z,85.93
2023-04-15T02:47:50.136Z,86.01
2023-04-15T02:50:54.514Z,85.52
2023-04-15T02:54:00.639Z,85.88
2023-04-15T02:57:07.497Z,85.85
2023-04-15T03:00:12.290Z,85.40
2023-04-15T03:03:17.352Z,85.62
2023-04-15T03:06:28.987Z,86.07
2023-04-15T03:09:35.501Z,85.60
2023-04-15T03:12:49.756Z,85.41
2023-04-15T03:15:57.793Z,85.34
2023-04-15T03:19:10.750Z,85.23
2023-04-15T03:22:17.038Z,84.96
2023-04-15T03:25:22.891Z,84.73
2023-04-15T03:28:30.413Z,85.26
2023-04-15T03:31:37.712Z,84.59
2023-04-15T03:34:43.802Z,84.79
2023-04-15T03:37:59.326Z,84.58
2023-04-15T03:41:04.052Z,84.54
2023-04-15T03:44:18.384Z,84.42
2023-04-15T03:47:23.349Z,84.30
2023-04-15T03:50:27.244Z,84.31
2023-04-15T03:53:31.460Z,84.49
2023-04-15T03:56:34.034Z,84.12
2023-04-15T03:59:40.482Z,84.26
2023-04-15T04:02:48.702Z,84.05
2023-04-15T04:05:54.470Z,83.99
2023-04-15T04:09:01.213Z,83.92
2023-04-15T04:12:06.681Z,84.13
2023-04-15T04:15:30.101Z,84.24
2023-04-15T04:18:35.329Z,84.36
2023-04-15T04:21:48.555Z,84.60
2023-04-15T04:24:54.741Z,84.46
2023-04-15T04:31:21.006Z,84.14
2023-04-15T04:34:33.782Z,84.40
2023-04-15T04:37:39.387Z,84.79
2023-04-15T04:40:47.064Z,85.16
2023-04-15T04:43:52.124Z,85.17
2023-04-15T04:47:00.571Z,84.44
2023-04-15T04:50:05.327Z,84.56
2023-04-15T04:53:11.280Z,84.22
2023-04-15T04:56:18.118Z,84.69
2023-04-15T04:59:29.867Z,84.54
2023-04-15T05:02:32.986Z,84.50
2023-04-15T05:05:45.128Z,84.81
2023-04-15T05:08:51.196Z,84.16
2023-04-15T05:11:53.522Z,84.46
2023-04-15T05:14:56.678Z,82.88
2023-04-15T05:18:01.026Z,82.73
2023-04-15T05:21:12.495Z,81.70
2023-04-15T05:24:17.619Z,81.64
2023-04-15T05:27:23.420Z,80.42
2023-04-15T05:30:27.771Z,80.06
2023-04-15T05:33:29.382Z,80.00
2023-04-15T05:36:42.211Z,79.35
2023-04-15T05:39:47.171Z,79.43
2023-04-15T05:42:52.196Z,78.75
2023-04-15T05:45:57.671Z,78.22
2023-04-15T05:49:02.808Z,78.07
2023-04-15T05:52:06.345Z,78.27
2023-04-15T05:55:10.060Z,78.24
2023-04-15T05:58:16.481Z,78.79
2023-04-15T06:01:24.894Z,78.53
2023-04-15T06:04:36.471Z,78.72
2023-04-15T06:07:42.195Z,78.58
2023-04-15T06:10:46.713Z,78.64
2023-04-15T06:13:50.622Z,78.01
2023-04-15T06:16:54.920Z,78.52
2023-04-15T06:20:01.329Z,77.65
2023-04-15T06:23:06.736Z,78.01
2023-04-15T06:26:10.813Z,77.72
2023-04-15T06:29:21.677Z,77.38
2023-04-15T06:32:26.943Z,76.82
2023-04-15T06:35:32.912Z,76.38
2023-04-15T06:38:37.812Z,76.08
2023-04-15T06:41:43.373Z,75.92
2023-04-15T06:44:45.043Z,76.28
2023-04-15T06:47:49.531Z,75.21
2023-04-15T06:50:55.340Z,75.39
2023-04-15T06:54:00.573Z,75.33
2023-04-15T06:57:11.630Z,74.65
2023-04-15T07:00:16.693Z,73.97
2023-04-15T07:03:22.526Z,73.47
2023-04-15T07:06:25.119Z,73.43
2023-04-15T07:09:31.355Z,73.13
2023-04-15T07:12:49.437Z,73.36
2023-04-15T07:15:53.364Z,72.42
2023-04-15T07:18:58.870Z,72.71
2023-04-15T07:22:02.627Z,72.37
2023-04-15T07:25:14.767Z,72.50
2023-04-15T07:28:20.374Z,72.67
2023-04-15T07:31:23.558Z,72.91
2023-04-15T07:34:29.031Z,72.84
2023-04-15T07:37:33.703Z,72.61
2023-04-15T07:40:35.710Z,71.82
2023-04-15T07:43:51.070Z,71.63
2023-04-15T07:46:55.126Z,71.35
2023-04-15T07:50:05.777Z,70.81
2023-04-15T07:53:09.185Z,70.83
2023-04-15T07:56:16.340Z,70.67
2023-04-15T07:59:21.263Z,70.63
2023-04-15T08:02:27.311Z,70.92
2023-04-15T08:05:31.633Z,71.96
2023-04-15T08:08:43.553Z,71.32
2023-04-15T08:11:55.465Z,70.59
2023-04-15T08:15:08.285Z,70.69
2023-04-15T08:18:13.806Z,70.25
2023-04-15T08:21:21.173Z,69.86
2023-04-15T08:24:27.268Z,70.70
2023-04-15T08:27:30.149Z,69.99
2023-04-15T08:30:32.463Z,69.87
2023-04-15T08:33:45.382Z,70.45
2023-04-15T08:36:50.848Z,70.64
2023-04-15T08:40:01.720Z,70.16
2023-04-15T08:43:10.394Z,69.94
2023-04-15T08:46:23.329Z,70.26
2023-04-15T08:49:36.790Z,70.60
2023-04-15T08:52:40.533Z,69.92
2023-04-15T08:56:02.446Z,70.71
2023-04-15T08:59:08.105Z,70.71
2023-04-15T09:02:23.117Z,69.89
2023-04-15T09:05:27.609Z,69.77
2023-04-15T09:08:30.717Z,69.57
2023-04-15T09:11:33.754Z,69.88
2023-04-15T09:14:44.707Z,69.59
2023-04-15T09:17:51.153Z,69.35
2023-04-15T09:21:02.694Z,68.68
2023-04-15T09:24:08.387Z,68.22
2023-04-15T09:27:13.483Z,67.64
2023-04-15T09:30:19.732Z,67.83
2023-04-15T09:33:30.718Z,67.52
2023-04-15T09:36:57.492Z,67.99
2023-04-15T09:40:03.072Z,67.93
2023-04-15T09:43:09.092Z,68.71
2023-04-15T09:46:12.355Z,68.24
2023-04-15T09:49:18.520Z,67.56
2023-04-15T09:52:24.801Z,67.47
2023-04-15T09:55:33.366Z,65.71
2023-04-15T09:58:39.823Z,66.05
2023-04-15T10:01:46.257Z,64.70
2023-04-15T10:04:57.930Z,64.54
2023-04-15T10:08:13.893Z,63.52
2023-04-15T10:11:20.273Z,62.82
2023-04-15T10:14:26.036Z,61.58
2023-04-15T10:17:39.688Z,60.52
2023-04-15T10:20:58.723Z,59.55
2023-04-15T10:24:10.276Z,60.20
2023-04-15T10:27:14.518Z,59.02
2023-04-15T10:30:26.868Z,59.91
2023-04-15T10:33:32.721Z,60.26
2023-04-15T10:36:38.328Z,60.60
2023-04-15T10:39:43.601Z,59.24
2023-04-15T10:42:47.641Z,59.19
2023-04-15T10:46:01.449Z,59.43
2023-04-15T10:49:18.665Z,60.96
2023-04-15T10:52:29.296Z,60.79
2023-04-15T10:55:39.289Z,62.67
2023-04-15T10:58:51.777Z,66.13
2023-04-15T11:02:03.211Z,66.85
2023-04-15T11:05:07.938Z,67.35
2023-04-15T11:08:18.776Z,69.01
2023-04-15T11:11:23.170Z,69.31
2023-04-15T11:14:27.659Z,68.90
2023-04-15T11:17:30.207Z,65.09
2023-04-15T11:20:39.749Z,63.28
2023-04-15T11:23:49.704Z,59.55
2023-04-15T11:27:04.808Z,55.42
2023-04-15T11:30:31.868Z,54.11
2023-04-15T11:33:45.523Z,51.09
2023-04-15T11:36:51.081Z,50.69
2023-04-15T11:39:55.183Z,51.96
2023-04-15T11:43:21.496Z,50.59
2023-04-15T11:46:33.236Z,49.74
2023-04-15T11:49:41.523Z,49.37
2023-04-15T11:53:01.720Z,49.52
2023-04-15T11:56:07.962Z,47.75
2023-04-15T11:59:09.785Z,47.76
2023-04-15T12:02:16.543Z,48.85
2023-04-15T12:05:22.218Z,49.31
2023-04-15T12:08:25.911Z,50.09
2023-04-15T12:11:55.104Z,50.50
2023-04-15T12:14:59.441Z,52.54
2023-04-15T12:18:03.242Z,53.45
2023-04-15T12:21:12.171Z,53.65
2023-04-15T12:24:23.654Z,52.83
2023-04-15T12:27:35.857Z,52.62
2023-04-15T12:31:02.730Z,52.06
2023-04-15T12:34:15.363Z,53.26
2023-04-15T12:37:19.515Z,54.46
2023-04-15T12:40:22.945Z,55.33
2023-04-15T12:43:27.694Z,56.60
2023-04-15T12:46:32.246Z,57.49
2023-04-15T12:49:37.941Z,57.30
2023-04-15T12:52:43.298Z,58.08
2023-04-15T12:55:57.776Z,58.54
2023-04-15T12:59:01.009Z,58.99
2023-04-15T13:02:05.676Z,58.47
2023-04-15T13:05:11.201Z,57.97
2023-04-15T13:08:15.596Z,57.50
2023-04-15T13:11:22.884Z,57.10
2023-04-15T13:14:27.864Z,56.85
2023-04-15T13:17:33.393Z,57.52
2023-04-15T13:20:37.781Z,57.97
2023-04-15T13:23:43.590Z,58.00
2023-04-15T13:26:50.238Z,56.77
2023-04-15T13:30:00.928Z,56.13
2023-04-15T13:33:05.502Z,56.05
2023-04-15T13:36:09.503Z,55.22
2023-04-15T13:39:11.779Z,55.09
2023-04-15T13:42:24.778Z,55.32
2023-04-15T13:48:47.718Z,56.44
2023-04-15T13:52:00.402Z,57.64
2023-04-15T13:55:18.315Z,57.74
2023-04-15T13:58:25.970Z,57.93
2023-04-15T14:01:39.832Z,58.37
2023-04-15T14:04:43.790Z,59.38
2023-04-15T14:07:46.781Z,59.57
2023-04-15T14:10:52.164Z,59.87
2023-04-15T14:13:58.106Z,63.45
2023-04-15T14:17:02.219Z,64.69
2023-04-15T14:20:18.975Z,65.81
2023-04-15T14:23:22.946Z,66.07
2023-04-15T14:26:28.573Z,66.22
2023-04-15T14:29:33.942Z,67.03
2023-04-15T14:32:44.997Z,67.07
2023-04-15T14:35:57.429Z,67.40
2023-04-15T14:39:00.797Z,66.84
2023-04-15T14:42:05.315Z,67.07
2023-04-15T14:45:09.504Z,66.76
2023-04-15T14:48:12.718Z,71.46
2023-04-15T14:51:24.920Z,72.01
2023-04-15T14:54:28.265Z,72.71
2023-04-15T14:57:31.576Z,73.46
2023-04-15T15:00:36.249Z,72.94
2023-04-15T15:03:41.508Z,71.87
2023-04-15T15:06:45.468Z,72.46
2023-04-15T15:09:54.723Z,72.98
2023-04-15T15:13:07.389Z,72.67
2023-04-15T15:16:14.812Z,72.51
2023-04-15T15:19:19.347Z,72.28
2023-04-15T15:22:25.069Z,72.00
2023-04-15T15:25:31.789Z,71.85
2023-04-15T15:28:46.416Z,70.39
2023-04-15T15:31:50.973Z,70.62
2023-04-15T15:34:58.232Z,70.18
2023-04-15T15:38:01.657Z,69.90
2023-04-15T15:41:05.721Z,68.90
2023-04-15T15:44:07.888Z,68.86
2023-04-15T15:47:10.485Z,68.81
2023-04-15T15:50:15.699Z,68.85
2023-04-15T15:53:22.451Z,68.72
2023-04-15T15:56:34.654Z,68.29
2023-04-15T15:59:41.219Z,68.57
2023-04-15T16:03:04.362Z,69.00
2023-04-15T16:06:23.141Z,70.34
2023-04-15T16:09:27.515Z,70.08
2023-04-15T16:12:29.605Z,69.92
2023-04-15T16:15:31.878Z,70.35
2023-04-15T16:18:36.109Z,70.36
2023-04-15T16:21:42.065Z,71.17
2023-04-15T16:24:53.995Z,71.96
2023-04-15T16:28:08.545Z,71.12
2023-04-15T16:31:19.198Z,72.89
2023-04-15T16:34:21.495Z,73.05
2023-04-15T16:37:25.052Z,73.67
2023-04-15T16:40:29.488Z,74.20
2023-04-15T16:43:33.303Z,75.55
2023-04-15T16:46:36.366Z,76.05
2023-04-15T16:49:42.540Z,77.65
2023-04-15T16:52:45.644Z,79.28
2023-04-15T16:55:48.633Z,79.32
2023-04-15T16:58:53.054Z,80.15
2023-04-15T17:01:59.642Z,80.85
2023-04-15T17:05:01.888Z,81.95
2023-04-15T17:08:07.085Z,82.15
2023-04-15T17:11:08.644Z,83.54
2023-04-15T17:14:10.971Z,83.65
2023-04-15T17:17:13.035Z,83.82
2023-04-15T17:20:17.762Z,84.13
2023-04-15T17:23:24.342Z,84.64
2023-04-15T17:26:27.901Z,84.56
2023-04-15T17:29:32.120Z,85.34
2023-04-15T17:32:40.359Z,85.12
2023-04-15T17:35:44.639Z,86.40
2023-04-15T17:38:46.934Z,86.46
2023-04-15T17:41:59.005Z,86.88
2023-04-15T17:45:14.023Z,87.21
2023-04-15T17:48:20.028Z,88.07
2023-04-15T17:51:22.071Z,88.23
2023-04-15T17:54:23.796Z,89.02
2023-04-15T17:57:26.063Z,89.17
2023-04-15T18:00:30.082Z,89.24
2023-04-15T18:03:38.272Z,90.10
2023-04-15T18:06:48.862Z,91.23
2023-04-15T18:09:52.254Z,90.88
2023-04-15T18:12:55.909Z,91.89
2023-04-15T18:15:59.506Z,92.33
2023-04-15T18:19:04.348Z,92.45
2023-04-15T18:22:07.813Z,92.60
2023-04-15T18:25:11.273Z,93.06
2023-04-15T18:28:14.781Z,93.71
2023-04-15T18:31:19.076Z,93.70
2023-04-15T18:34:21.772Z,94.00
2023-04-15T18:37:24.774Z,94.39
2023-04-15T18:40:29.644Z,94.54
2023-04-15T18:43:33.034Z,94.71
2023-04-15T18:46:35.780Z,94.92
2023-04-15T18:49:39.088Z,94.49
2023-04-15T18:52:41.142Z,94.82
2023-04-15T18:55:45.405Z,95.06
2023-04-15T18:59:08.576Z,95.08
2023-04-15T19:02:10.944Z,94.94
2023-04-15T19:05:12.748Z,94.89
2023-04-15T19:08:15.372Z,94.65
2023-04-15T19:11:17.780Z,94.87
2023-04-15T19:14:19.996Z,95.41
2023-04-15T19:17:21.653Z,94.93
2023-04-15T19:20:24.037Z,95.32
2023-04-15T19:23:25.808Z,95.37
2023-04-15T19:26:30.730Z,95.50
2023-04-15T19:29:33.776Z,95.32
2023-04-15T19:32:36.143Z,95.90
2023-04-15T19:35:41.250Z,96.02
2023-04-15T19:38:43.815Z,95.77
2023-04-15T19:41:45.813Z,96.44
2023-04-15T19:44:49.593Z,96.58
2023-04-15T19:47:54.645Z,96.71
2023-04-15T19:50:57.745Z,96.88
2023-04-15T19:54:01.351Z,97.18
2023-04-15T19:57:08.565Z,97.58
2023-04-15T20:00:13.774Z,98.02
2023-04-15T20:03:20.825Z,97.96
2023-04-15T20:06:24.650Z,98.37
2023-04-15T20:09:47.759Z,98.03
2023-04-15T20:12:53.407Z,97.98
2023-04-15T20:15:55.491Z,98.42
2023-04-15T20:25:40.581Z,98.48
2023-04-15T20:28:43.212Z,98.04
2023-04-15T20:31:45.096Z,98.55
2023-04-15T20:34:50.820Z,98.41
2023-04-15T20:37:55.500Z,98.73
2023-04-15T20:40:58.217Z,98.61
2023-04-15T20:43:59.889Z,98.00
2023-04-15T20:47:01.998Z,97.91
2023-04-15T20:50:04.098Z,98.72
2023-04-15T20:53:06.159Z,98.57
2023-04-15T20:56:08.234Z,98.97
2023-04-15T20:59:10.295Z,99.32
2023-04-15T21:02:12.095Z,99.50
2023-04-15T21:05:13.811Z,99.71
2023-04-15T21:08:16.082Z,99.32
2023-04-15T21:11:36.874Z,99.21
2023-04-15T21:14:42.489Z,99.42
2023-04-15T21:17:44.040Z,99.12
2023-04-15T21:20:46.484Z,99.42
2023-04-15T21:23:50.947Z,99.13
2023-04-15T21:26:53.808Z,98.96
2023-04-15T21:29:56.092Z,98.85
2023-04-15T21:32:58.186Z,98.86
2023-04-15T21:35:59.831Z,98.96
2023-04-15T21:39:02.591Z,99.57
2023-04-15T21:42:04.268Z,98.99
2023-04-15T21:45:07.575Z,98.82
2023-04-15T21:48:09.719Z,98.69
2023-04-15T21:51:12.617Z,98.63
2023-04-15T21:54:14.654Z,98.68
2023-04-15T21:57:16.722Z,98.85
2023-04-15T22:00:21.148Z,99.11
2023-04-15T22:03:24.586Z,99.24
2023-04-15T22:06:27.069Z,99.44
2023-04-15T22:09:28.956Z,99.36
2023-04-15T22:12:31.328Z,99.66
2023-04-15T22:15:32.943Z,99.79
2023-04-15T22:18:35.015Z,99.95
2023-04-15T22:21:37.003Z,100.00
2023-04-15T22:24:40.437Z,100.00
2023-04-15T22:27:42.833Z,100.00
2023-04-15T22:30:44.863Z,100.00
2023-04-15T22:33:46.847Z,100.00
2023-04-15T22:36:52.029Z,100.00
2023-04-15T22:39:56.619Z,100.00
2023-04-15T22:42:58.196Z,100.00
2023-04-15T22:46:01.357Z,100.00
2023-04-15T22:49:04.020Z,100.00
2023-04-15T22:52:05.888Z,100.00
2023-04-15T22:55:08.630Z,100.00
2023-04-15T22:58:11.040Z,100.00
2023-04-15T23:01:17.439Z,100.00
2023-04-15T23:04:25.151Z,100.00
2023-04-15T23:07:29.525Z,100.00
2023-04-15T23:10:31.762Z,100.00
2023-04-15T23:13:35.688Z,100.00
2023-04-15T23:16:37.832Z,100.00
2023-04-15T23:19:39.509Z,100.00
2023-04-15T23:22:43.042Z,100.00
2023-04-15T23:25:45.142Z,100.00
2023-04-15T23:28:47.165Z,100.00
2023-04-15T23:31:48.834Z,100.00
2023-04-15T23:34:52.618Z,100.00
2023-04-15T23:37:54.609Z,100.00
2023-04-15T23:40:56.297Z,100.00
2023-04-15T23:43:58.856Z,100.00
2023-04-15T23:47:01.014Z,100.00
2023-04-15T23:50:03.627Z,100.00
2023-04-15T23:53:05.211Z,100.00
2023-04-15T23:56:07.054Z,100.00
2023-04-15T23:59:09.207Z,100.00
